Time;durP1;ratioP1;P1;durP2;ratioP2;P2;SDS_P1;SDS_P2;PMS_P1;PMS_P2;Temp;Humidity;BMP_temperature;BMP_pressure;BME280_temperature;BME280_humidity;BME280_pressure;Samples;Min_cycle;Max_cycle;Signal;HPM_P1;HPM_P2
2022/01/02 00:01:12;;;;;;;;;;;;;;;;;;5093830;28;19956;-32
2022/01/02 00:03:38;;;;;;;;;;;;;;;;;;5094959;28;19958;-36
2022/01/02 00:06:04;;;;;;;;;;;;;;;;;;5094700;28;19912;-31
2022/01/02 00:08:30;;;;;;;;;;;;;;;;;;5094735;28;20362;-31
2022/01/02 00:10:56;;;;;;;;;;;;;;;;;;5094685;28;19912;-28
2022/01/02 00:13:23;;;;;;;;;;;;;;;;;;5095373;28;19984;-31
2022/01/02 00:15:49;;;;;;;;;;;;;;;;;;5094627;28;20258;-32
2022/01/02 00:18:15;;;;;;;;;;;;;;;;;;5094466;28;20365;-36
2022/01/02 00:20:48;;;;;;;;;;;;;;;;;;5094845;28;20355;-32
2022/01/02 00:23:23;;;;;;;;;;;;;;;;;;5094553;28;19968;-28
2022/01/02 00:25:52;;;;;;;;;;;;;;;;;;5094542;28;19923;-31
2022/01/02 00:28:18;;;;;;;;;;;;;;;;;;5094781;28;20220;-31
2022/01/02 00:30:44;;;;;;;;;;;;;;;;;;5094460;28;20358;-34
2022/01/02 00:33:10;;;;;;;;;;;;;;;;;;5094504;28;20312;-32
2022/01/02 00:35:36;;;;;;;;;;;;;;;;;;5094449;28;19969;-31
2022/01/02 00:38:02;;;;;;;;;;;;;;;;;;5094365;28;19920;-30
2022/01/02 00:40:28;;;;;;;;;;;;;;;;;;5094672;28;19937;-30
2022/01/02 00:42:54;;;;;;;;;;;;;;;;;;5093339;28;19935;-31
2022/01/02 00:45:20;;;;;;;;;;;;;;;;;;5093429;28;19952;-32
2022/01/02 00:47:46;;;;;;;;;;;;;;;;;;5093281;28;19908;-30
2022/01/02 00:50:12;;;;;;;;;;;;;;;;;;5094318;28;19922;-34
2022/01/02 00:52:38;;;;;;;;;;;;;;;;;;5094793;28;19943;-36
2022/01/02 00:55:04;;;;;;;;;;;;;;;;;;5098161;28;19912;-30
2022/01/02 00:57:31;;;;;;;;;;;;;;;;;;5096769;28;20270;-29
2022/01/02 00:59:57;;;;;;;;;;;;;;;;;;5097819;28;19912;-34
2022/01/02 01:02:23;;;;;;;;;;;;;;;;;;5097741;28;19962;-34
2022/01/02 01:04:49;;;;;;;;;;;;;;;;;;5097762;28;19912;-32
2022/01/02 01:07:15;;;;;;;;;;;;;;;;;;5097964;28;19919;-30
2022/01/02 01:09:41;;;;;;;;;;;;;;;;;;5097606;28;20309;-34
2022/01/02 01:12:10;;;;;;;;;;;;;;;;;;5097553;28;19908;-29
2022/01/02 01:14:36;;;;;;;;;;;;;;;;;;5097776;28;19919;-31
2022/01/02 01:17:02;;;;;;;;;;;;;;;;;;5097288;28;20342;-34
2022/01/02 01:19:28;;;;;;;;;;;;;;;;;;5097824;28;19989;-28
2022/01/02 01:21:54;;;;;;;;;;;;;;;;;;5097417;28;19912;-33
2022/01/02 01:24:20;;;;;;;;;;;;;;;;;;5097610;28;19935;-33
2022/01/02 01:26:48;;;;;;;;;;;;;;;;;;5097327;28;19963;-33
2022/01/02 01:29:14;;;;;;;;;;;;;;;;;;5097271;28;19920;-30
2022/01/02 01:31:40;;;;;;;;;;;;;;;;;;5097256;28;20266;-29
2022/01/02 01:34:06;;;;;;;;;;;;;;;;;;5097060;28;19912;-34
2022/01/02 01:36:32;;;;;;;;;;;;;;;;;;5097130;28;19923;-31
2022/01/02 01:38:58;;;;;;;;;;;;;;;;;;5096983;28;20350;-33
2022/01/02 01:41:24;;;;;;;;;;;;;;;;;;5096070;28;20453;-30
2022/01/02 01:44:04;;;;;;;;;;;;;;;;;;5096975;28;19951;-34
2022/01/02 01:46:30;;;;;;;;;;;;;;;;;;5097384;28;19920;-34
2022/01/02 01:48:56;;;;;;;;;;;;;;;;;;5097404;28;19938;-28
2022/01/02 01:51:22;;;;;;;;;;;;;;;;;;5096928;28;19973;-34
2022/01/02 01:53:48;;;;;;;;;;;;;;;;;;5096766;28;19917;-34
2022/01/02 01:56:14;;;;;;;;;;;;;;;;;;5095769;28;19973;-29
2022/01/02 01:58:40;;;;;;;;;;;;;;;;;;5096921;28;19927;-31
2022/01/02 02:01:06;;;;;;;;;;;;;;;;;;5096616;28;19908;-34
2022/01/02 02:03:33;;;;;;;;;;;;;;;;;;5095146;28;20262;-34
2022/01/02 02:05:59;;;;;;;;;;;;;;;;;;5096567;28;19961;-31
2022/01/02 02:08:27;;;;;;;;;;;;;;;;;;5096515;28;19913;-34
2022/01/02 02:10:56;;;;;;;;;;;;;;;;;;5096516;28;20066;-32
2022/01/02 02:13:22;;;;;;;;;;;;;;;;;;5095412;28;19912;-32
2022/01/02 02:15:48;;;;;;;;;;;;;;;;;;5096642;28;19928;-36
2022/01/02 02:18:14;;;;;;;;;;;;;;;;;;5096068;28;19931;-37
2022/01/02 02:20:40;;;;;;;;;;;;;;;;;;5096267;28;20405;-36
2022/01/02 02:23:06;;;;;;;;;;;;;;;;;;5096336;28;19951;-34
2022/01/02 02:25:32;;;;;;;;;;;;;;;;;;5096441;28;19922;-34
2022/01/02 02:27:58;;;;;;;;;;;;;;;;;;5096233;28;20339;-34
2022/01/02 02:30:24;;;;;;;;;;;;;;;;;;5096143;28;19923;-29
2022/01/02 02:32:50;;;;;;;;;;;;;;;;;;5096260;28;20253;-35
2022/01/02 02:35:16;;;;;;;;;;;;;;;;;;5096348;28;19912;-31
2022/01/02 02:37:43;;;;;;;;;;;;;;;;;;5094938;28;19924;-35
2022/01/02 02:40:09;;;;;;;;;;;;;;;;;;5094933;28;19969;-29
2022/01/02 02:42:44;;;;;;;;;;;;;;;;;;5094870;28;19969;-31
2022/01/02 02:50:39;;;;;;;;;;;;;;;;;;5096096;28;20315;-29
2022/01/02 02:53:05;;;;;;;;;;;;;;;;;;5095925;28;19940;-32
2022/01/02 02:55:33;;;;;;;;;;;;;;;;;;5095919;28;20226;-29
2022/01/02 02:58:16;;;;;;;;;;;;;;;;;;5095598;28;19912;-30
2022/01/02 03:00:43;;;;;;;;;;;;;;;;;;5095567;28;19916;-31
2022/01/02 03:03:09;;;;;;;;;;;;;;;;;;5095756;28;19914;-32
2022/01/02 03:05:35;;;;;;;;;;;;;;;;;;5095464;28;20003;-36
2022/01/02 03:08:01;;;;;;;;;;;;;;;;;;5095435;28;19919;-35
2022/01/02 03:10:27;;;;;;;;;;;;;;;;;;5095318;28;19942;-31
2022/01/02 03:12:53;;;;;;;;;;;;;;;;;;5095280;28;20371;-33
2022/01/02 03:15:20;;;;;;;;;;;;;;;;;;5094732;28;20343;-34
2022/01/02 03:17:46;;;;;;;;;;;;;;;;;;5094815;28;19920;-33
2022/01/02 03:20:12;;;;;;;;;;;;;;;;;;5095572;28;19923;-36
2022/01/02 03:22:38;;;;;;;;;;;;;;;;;;5095138;28;19922;-32
2022/01/02 03:25:04;;;;;;;;;;;;;;;;;;5095444;28;19944;-29
2022/01/02 03:27:32;;;;;;;;;;;;;;;;;;5095451;28;19935;-31
2022/01/02 03:29:58;;;;;;;;;;;;;;;;;;5094128;28;20010;-30
2022/01/02 03:32:24;;;;;;;;;;;;;;;;;;5094037;28;19912;-35
2022/01/02 03:34:50;;;;;;;;;;;;;;;;;;5095325;28;20236;-32
2022/01/02 03:37:16;;;;;;;;;;;;;;;;;;5094913;28;20361;-34
2022/01/02 03:39:42;;;;;;;;;;;;;;;;;;5094961;28;19912;-31
2022/01/02 03:42:08;;;;;;;;;;;;;;;;;;5094954;28;20516;-28
2022/01/02 03:44:34;;;;;;;;;;;;;;;;;;5093973;28;19919;-34
2022/01/02 03:47:00;;;;;;;;;;;;;;;;;;5095135;28;19912;-37
2022/01/02 03:49:26;;;;;;;;;;;;;;;;;;5095174;28;19908;-30
2022/01/02 03:51:52;;;;;;;;;;;;;;;;;;5094805;28;19927;-32
2022/01/02 03:54:18;;;;;;;;;;;;;;;;;;5094893;28;19973;-31
2022/01/02 03:56:44;;;;;;;;;;;;;;;;;;5094949;28;19951;-31
2022/01/02 03:59:12;;;;;;;;;;;;;;;;;;5095024;28;19934;-35
2022/01/02 04:01:38;;;;;;;;;;;;;;;;;;5094817;28;19987;-33
2022/01/02 04:04:04;;;;;;;;;;;;;;;;;;5094778;28;20359;-32
2022/01/02 04:06:30;;;;;;;;;;;;;;;;;;5093808;28;19912;-34
2022/01/02 04:08:56;;;;;;;;;;;;;;;;;;5094992;28;19919;-35
2022/01/02 04:11:22;;;;;;;;;;;;;;;;;;5093744;28;19908;-33
2022/01/02 04:13:48;;;;;;;;;;;;;;;;;;5094696;28;19912;-33
2022/01/02 04:16:14;;;;;;;;;;;;;;;;;;5094672;28;19970;-34
2022/01/02 04:18:40;;;;;;;;;;;;;;;;;;5094411;28;19920;-33
2022/01/02 04:21:06;;;;;;;;;;;;;;;;;;5094887;28;19912;-32
2022/01/02 04:23:33;;;;;;;;;;;;;;;;;;5094629;28;19969;-29
2022/01/02 04:25:59;;;;;;;;;;;;;;;;;;5094561;28;19912;-37
2022/01/02 04:28:25;;;;;;;;;;;;;;;;;;5096717;28;20303;-33
2022/01/02 04:30:51;;;;;;;;;;;;;;;;;;5098487;28;19908;-32
2022/01/02 04:33:17;;;;;;;;;;;;;;;;;;5098346;28;20254;-35
2022/01/02 04:35:43;;;;;;;;;;;;;;;;;;5098616;28;19956;-29
2022/01/02 04:38:09;;;;;;;;;;;;;;;;;;5098206;28;19916;-34
2022/01/02 04:40:36;;;;;;;;;;;;;;;;;;5098559;28;19908;-33
2022/01/02 04:43:02;;;;;;;;;;;;;;;;;;5098125;28;19912;-30
2022/01/02 04:45:28;;;;;;;;;;;;;;;;;;5098398;28;20350;-34
2022/01/02 04:47:55;;;;;;;;;;;;;;;;;;5099166;28;19908;-36
2022/01/02 04:50:21;;;;;;;;;;;;;;;;;;5098032;28;19947;-34
2022/01/02 04:52:47;;;;;;;;;;;;;;;;;;5097971;28;19939;-33
2022/01/02 04:55:13;;;;;;;;;;;;;;;;;;5098310;28;19912;-30
2022/01/02 04:57:39;;;;;;;;;;;;;;;;;;5097874;28;19926;-30
2022/01/02 05:00:05;;;;;;;;;;;;;;;;;;5098145;28;19970;-34
2022/01/02 05:02:31;;;;;;;;;;;;;;;;;;5097947;28;19912;-37
2022/01/02 05:04:57;;;;;;;;;;;;;;;;;;5098053;28;19912;-33
2022/01/02 05:07:23;;;;;;;;;;;;;;;;;;5097786;28;19920;-30
2022/01/02 05:09:49;;;;;;;;;;;;;;;;;;5097689;28;19916;-28
2022/01/02 05:12:15;;;;;;;;;;;;;;;;;;5097569;28;19962;-31
2022/01/02 05:14:41;;;;;;;;;;;;;;;;;;5097842;28;19931;-34
2022/01/02 05:17:07;;;;;;;;;;;;;;;;;;5097404;28;19943;-32
2022/01/02 05:19:33;;;;;;;;;;;;;;;;;;5097737;28;19920;-30
2022/01/02 05:21:59;;;;;;;;;;;;;;;;;;5096377;28;19918;-36
2022/01/02 05:24:25;;;;;;;;;;;;;;;;;;5097455;28;20342;-35
2022/01/02 05:26:53;;;;;;;;;;;;;;;;;;5097373;28;19961;-33
2022/01/02 05:29:19;;;;;;;;;;;;;;;;;;5097268;28;20339;-36
2022/01/02 05:31:45;;;;;;;;;;;;;;;;;;5097303;28;19957;-31
2022/01/02 05:34:11;;;;;;;;;;;;;;;;;;5097067;28;19912;-37
2022/01/02 05:36:37;;;;;;;;;;;;;;;;;;5097154;28;19916;-29
2022/01/02 05:39:03;;;;;;;;;;;;;;;;;;5096248;28;19927;-30
2022/01/02 05:41:31;;;;;;;;;;;;;;;;;;5097031;28;19908;-33
2022/01/02 05:43:57;;;;;;;;;;;;;;;;;;5096976;28;19908;-28
2022/01/02 05:46:24;;;;;;;;;;;;;;;;;;5097024;28;19923;-34
2022/01/02 05:48:53;;;;;;;;;;;;;;;;;;5097263;28;19992;-29
2022/01/02 05:51:19;;;;;;;;;;;;;;;;;;5096920;28;19912;-33
2022/01/02 05:53:46;;;;;;;;;;;;;;;;;;5096786;28;19918;-34
2022/01/02 05:56:11;;;;;;;;;;;;;;;;;;5097074;28;19962;-33
2022/01/02 05:58:37;;;;;;;;;;;;;;;;;;5096704;28;20355;-31
2022/01/02 06:01:04;;;;;;;;;;;;;;;;;;5096687;28;19916;-33
2022/01/02 06:03:30;;;;;;;;;;;;;;;;;;5096667;28;20261;-35
2022/01/02 06:05:56;;;;;;;;;;;;;;;;;;5096611;28;19945;-33
2022/01/02 06:08:22;;;;;;;;;;;;;;;;;;5096521;28;20372;-32
2022/01/02 06:10:48;;;;;;;;;;;;;;;;;;5096575;28;20001;-32
2022/01/02 06:13:13;;;;;;;;;;;;;;;;;;5096422;28;19923;-33
2022/01/02 06:15:40;;;;;;;;;;;;;;;;;;5096467;28;19919;-33
2022/01/02 06:18:06;;;;;;;;;;;;;;;;;;5096056;28;20386;-31
2022/01/02 06:20:32;;;;;;;;;;;;;;;;;;5096334;28;20286;-37
2022/01/02 06:22:58;;;;;;;;;;;;;;;;;;5096146;28;19912;-34
2022/01/02 06:25:24;;;;;;;;;;;;;;;;;;5096520;28;20232;-37
2022/01/02 06:27:50;;;;;;;;;;;;;;;;;;5096439;28;19912;-34
2022/01/02 06:30:16;;;;;;;;;;;;;;;;;;5095124;28;20351;-35
2022/01/02 06:32:42;;;;;;;;;;;;;;;;;;5096014;28;19912;-33
2022/01/02 06:35:08;;;;;;;;;;;;;;;;;;5096362;28;19969;-32
2022/01/02 06:37:34;;;;;;;;;;;;;;;;;;5095938;28;19985;-32
2022/01/02 06:40:00;;;;;;;;;;;;;;;;;;5096235;28;19912;-34
2022/01/02 06:42:26;;;;;;;;;;;;;;;;;;5095875;28;19908;-32
2022/01/02 06:44:52;;;;;;;;;;;;;;;;;;5096146;28;20371;-33
2022/01/02 06:47:18;;;;;;;;;;;;;;;;;;5094881;28;19915;-33
2022/01/02 06:49:44;;;;;;;;;;;;;;;;;;5095744;28;19912;-36
2022/01/02 06:52:10;;;;;;;;;;;;;;;;;;5095714;28;19919;-29
2022/01/02 06:54:37;;;;;;;;;;;;;;;;;;5095756;28;20003;-33
2022/01/02 06:57:03;;;;;;;;;;;;;;;;;;5094712;28;19916;-32
2022/01/02 06:59:31;;;;;;;;;;;;;;;;;;5095534;28;19927;-29
2022/01/02 07:01:57;;;;;;;;;;;;;;;;;;5095471;28;20006;-35
2022/01/02 07:04:23;;;;;;;;;;;;;;;;;;5095555;28;20370;-34
2022/01/02 07:06:49;;;;;;;;;;;;;;;;;;5095761;28;19919;-30
2022/01/02 07:09:15;;;;;;;;;;;;;;;;;;5095453;28;19908;-34
2022/01/02 07:11:41;;;;;;;;;;;;;;;;;;5094305;28;19912;-33
2022/01/02 07:14:07;;;;;;;;;;;;;;;;;;5095376;28;19923;-31
2022/01/02 07:16:33;;;;;;;;;;;;;;;;;;5095165;28;19923;-33
2022/01/02 07:18:59;;;;;;;;;;;;;;;;;;5095545;28;20066;-31
2022/01/02 07:21:27;;;;;;;;;;;;;;;;;;5094487;28;20202;-29
2022/01/02 07:23:54;;;;;;;;;;;;;;;;;;5095114;28;19991;-33
2022/01/02 07:26:20;;;;;;;;;;;;;;;;;;5094238;28;19914;-36
2022/01/02 07:28:46;;;;;;;;;;;;;;;;;;5094190;28;19951;-37
2022/01/02 07:31:12;;;;;;;;;;;;;;;;;;5095149;28;20374;-30
2022/01/02 07:33:38;;;;;;;;;;;;;;;;;;5095041;28;19991;-31
2022/01/02 07:36:04;;;;;;;;;;;;;;;;;;5095415;28;19955;-34
2022/01/02 07:38:30;;;;;;;;;;;;;;;;;;5095011;28;19919;-35
2022/01/02 07:40:56;;;;;;;;;;;;;;;;;;5095287;28;20220;-31
2022/01/02 07:43:22;;;;;;;;;;;;;;;;;;5093909;28;19955;-30
2022/01/02 07:45:48;;;;;;;;;;;;;;;;;;5095183;28;19912;-36
2022/01/02 07:48:14;;;;;;;;;;;;;;;;;;5094906;28;19912;-32
2022/01/02 07:50:40;;;;;;;;;;;;;;;;;;5094907;28;19919;-32
2022/01/02 07:53:07;;;;;;;;;;;;;;;;;;5094852;28;19908;-31
2022/01/02 07:55:33;;;;;;;;;;;;;;;;;;5093855;28;19912;-34
2022/01/02 07:57:59;;;;;;;;;;;;;;;;;;5094789;28;19927;-33
2022/01/02 08:00:25;;;;;;;;;;;;;;;;;;5095118;28;19911;-30
2022/01/02 08:02:51;;;;;;;;;;;;;;;;;;5097554;28;19908;-34
2022/01/02 08:05:17;;;;;;;;;;;;;;;;;;5098951;28;19962;-37
2022/01/02 08:07:43;;;;;;;;;;;;;;;;;;5098881;28;19988;-32
2022/01/02 08:10:09;;;;;;;;;;;;;;;;;;5099101;28;19912;-34
2022/01/02 08:12:35;;;;;;;;;;;;;;;;;;5098714;28;20005;-31
2022/01/02 08:15:01;;;;;;;;;;;;;;;;;;5098718;28;19955;-34
2022/01/02 08:17:27;;;;;;;;;;;;;;;;;;5098426;28;19931;-34
2022/01/02 08:19:53;;;;;;;;;;;;;;;;;;5097648;28;20081;-29
2022/01/02 08:22:20;;;;;;;;;;;;;;;;;;5098723;28;19931;-28
2022/01/02 08:24:46;;;;;;;;;;;;;;;;;;5098891;28;20339;-33
2022/01/02 08:27:12;;;;;;;;;;;;;;;;;;5098568;28;19961;-35
2022/01/02 08:29:38;;;;;;;;;;;;;;;;;;5098749;28;20005;-29
2022/01/02 08:32:04;;;;;;;;;;;;;;;;;;5097411;28;20356;-34
2022/01/02 08:34:30;;;;;;;;;;;;;;;;;;5098394;28;19912;-33
2022/01/02 08:36:56;;;;;;;;;;;;;;;;;;5098393;28;19923;-30
2022/01/02 08:39:22;;;;;;;;;;;;;;;;;;5098596;28;19915;-34
2022/01/02 08:41:48;;;;;;;;;;;;;;;;;;5098233;28;19916;-33
2022/01/02 08:44:14;;;;;;;;;;;;;;;;;;5098262;28;20011;-30
2022/01/02 08:46:40;;;;;;;;;;;;;;;;;;5098196;28;19912;-29
2022/01/02 08:49:06;;;;;;;;;;;;;;;;;;5098419;28;20352;-36
2022/01/02 08:51:32;;;;;;;;;;;;;;;;;;5097097;28;19916;-31
2022/01/02 08:53:58;;;;;;;;;;;;;;;;;;5098020;28;20247;-35
2022/01/02 08:56:24;;;;;;;;;;;;;;;;;;5098231;28;19916;-32
2022/01/02 08:58:50;;;;;;;;;;;;;;;;;;5097855;28;19923;-29
2022/01/02 09:01:16;;;;;;;;;;;;;;;;;;5097860;28;19993;-33
2022/01/02 09:03:42;;;;;;;;;;;;;;;;;;5097845;28;19907;-31
2022/01/02 09:06:08;;;;;;;;;;;;;;;;;;5097805;28;19912;-32
2022/01/02 09:08:34;;;;;;;;;;;;;;;;;;5096751;28;19918;-35
2022/01/02 09:11:00;;;;;;;;;;;;;;;;;;5097714;28;20350;-37
2022/01/02 09:13:26;;;;;;;;;;;;;;;;;;5096655;28;19922;-32
2022/01/02 09:15:53;;;;;;;;;;;;;;;;;;5097575;28;19909;-29
2022/01/02 09:18:19;;;;;;;;;;;;;;;;;;5097382;28;19975;-36
2022/01/02 09:20:45;;;;;;;;;;;;;;;;;;5097807;28;19908;-36
2022/01/02 09:23:11;;;;;;;;;;;;;;;;;;5097343;28;19918;-31
2022/01/02 09:25:37;;;;;;;;;;;;;;;;;;5096419;28;20396;-33
2022/01/02 09:28:03;;;;;;;;;;;;;;;;;;5097409;28;20011;-30
2022/01/02 09:30:29;;;;;;;;;;;;;;;;;;5097308;28;19912;-29
2022/01/02 09:32:55;;;;;;;;;;;;;;;;;;5097266;28;19919;-33
2022/01/02 09:35:21;;;;;;;;;;;;;;;;;;5097530;28;19935;-31
2022/01/02 09:37:47;;;;;;;;;;;;;;;;;;5097403;28;19916;-34
2022/01/02 09:40:14;;;;;;;;;;;;;;;;;;5097126;28;20018;-32
2022/01/02 09:42:40;;;;;;;;;;;;;;;;;;5097040;28;20362;-30
2022/01/02 09:45:06;;;;;;;;;;;;;;;;;;5097338;28;19940;-36
2022/01/02 09:47:32;;;;;;;;;;;;;;;;;;5097003;28;20254;-34
2022/01/02 09:49:58;;;;;;;;;;;;;;;;;;5096916;28;19934;-35
2022/01/02 09:52:24;;;;;;;;;;;;;;;;;;5095961;28;20327;-28
2022/01/02 09:54:50;;;;;;;;;;;;;;;;;;5096823;28;19916;-32
2022/01/02 09:57:17;;;;;;;;;;;;;;;;;;5096844;28;20208;-36
2022/01/02 09:59:43;;;;;;;;;;;;;;;;;;5096993;28;20228;-31
2022/01/02 10:02:09;;;;;;;;;;;;;;;;;;5096638;28;19919;-33
2022/01/02 10:04:35;;;;;;;;;;;;;;;;;;5096995;28;19981;-31
2022/01/02 10:07:01;;;;;;;;;;;;;;;;;;5096572;28;20377;-32
2022/01/02 10:09:27;;;;;;;;;;;;;;;;;;5097148;28;19916;-31
2022/01/02 10:11:53;;;;;;;;;;;;;;;;;;5096451;28;19919;-28
2022/01/02 10:14:19;;;;;;;;;;;;;;;;;;5096459;28;19908;-34
2022/01/02 10:16:45;;;;;;;;;;;;;;;;;;5098219;28;19926;-32
2022/01/02 10:19:11;;;;;;;;;;;;;;;;;;5097151;28;19916;-34
2022/01/02 10:21:37;;;;;;;;;;;;;;;;;;5096326;28;19908;-31
2022/01/02 10:24:03;;;;;;;;;;;;;;;;;;5096216;28;19927;-29
2022/01/02 10:26:29;;;;;;;;;;;;;;;;;;5095964;28;19908;-31
2022/01/02 10:28:55;;;;;;;;;;;;;;;;;;5096282;28;19912;-30
2022/01/02 10:31:21;;;;;;;;;;;;;;;;;;5096138;28;20308;-29
2022/01/02 10:33:47;;;;;;;;;;;;;;;;;;5095044;28;19912;-32
2022/01/02 10:36:14;;;;;;;;;;;;;;;;;;5096068;28;19965;-33
2022/01/02 10:38:40;;;;;;;;;;;;;;;;;;5095950;28;19927;-34
2022/01/02 10:41:06;;;;;;;;;;;;;;;;;;5095924;28;20273;-34
2022/01/02 10:43:33;;;;;;;;;;;;;;;;;;5095913;28;20012;-36
2022/01/02 10:45:59;;;;;;;;;;;;;;;;;;5095849;28;19912;-34
2022/01/02 10:48:25;;;;;;;;;;;;;;;;;;5095753;28;19990;-34
2022/01/02 10:50:51;;;;;;;;;;;;;;;;;;5095802;28;20003;-36
2022/01/02 10:53:17;;;;;;;;;;;;;;;;;;5095634;28;19908;-34
2022/01/02 10:55:44;;;;;;;;;;;;;;;;;;5095958;28;19969;-30
2022/01/02 10:58:10;;;;;;;;;;;;;;;;;;5095552;28;20255;-33
2022/01/02 11:00:36;;;;;;;;;;;;;;;;;;5095893;28;20023;-31
2022/01/02 11:03:02;;;;;;;;;;;;;;;;;;5095652;28;20330;-32
2022/01/02 11:05:28;;;;;;;;;;;;;;;;;;5095543;28;19994;-34
2022/01/02 11:07:54;;;;;;;;;;;;;;;;;;5095424;28;20009;-32
2022/01/02 11:10:20;;;;;;;;;;;;;;;;;;5095425;28;20297;-33
2022/01/02 11:12:47;;;;;;;;;;;;;;;;;;5095360;28;19919;-31
2022/01/02 11:15:13;;;;;;;;;;;;;;;;;;5095404;28;19924;-29
2022/01/02 11:17:39;;;;;;;;;;;;;;;;;;5095262;28;20337;-36
2022/01/02 11:20:05;;;;;;;;;;;;;;;;;;5095626;28;19912;-33
2022/01/02 11:22:31;;;;;;;;;;;;;;;;;;5095569;28;20331;-30
2022/01/02 11:24:57;;;;;;;;;;;;;;;;;;5095486;28;20242;-34
2022/01/02 11:27:23;;;;;;;;;;;;;;;;;;5095214;28;19930;-31
2022/01/02 11:29:49;;;;;;;;;;;;;;;;;;5095138;28;19916;-29
2022/01/02 11:32:15;;;;;;;;;;;;;;;;;;5095331;28;19957;-29
2022/01/02 11:34:46;;;;;;;;;;;;;;;;;;5095163;28;20301;-28
2022/01/02 11:37:12;;;;;;;;;;;;;;;;;;5094362;28;19912;-32
2022/01/02 11:39:38;;;;;;;;;;;;;;;;;;5095298;28;19999;-34
2022/01/02 11:42:04;;;;;;;;;;;;;;;;;;5094945;28;20355;-36
2022/01/02 11:44:30;;;;;;;;;;;;;;;;;;5094062;28;19996;-34
2022/01/02 11:46:56;;;;;;;;;;;;;;;;;;5095298;28;19912;-34
2022/01/02 11:49:22;;;;;;;;;;;;;;;;;;5093962;28;19912;-32
2022/01/02 11:51:49;;;;;;;;;;;;;;;;;;5094898;28;19908;-29
2022/01/02 11:54:15;;;;;;;;;;;;;;;;;;5094875;28;19920;-32
2022/01/02 11:56:40;;;;;;;;;;;;;;;;;;5095186;28;19912;-27
2022/01/02 11:59:06;;;;;;;;;;;;;;;;;;5094820;28;19912;-35
2022/01/02 12:01:32;;;;;;;;;;;;;;;;;;5094854;28;19961;-34
2022/01/02 12:03:58;;;;;;;;;;;;;;;;;;5094718;28;19912;-31
2022/01/02 12:06:24;;;;;;;;;;;;;;;;;;5094807;28;20003;-35
2022/01/02 12:08:50;;;;;;;;;;;;;;;;;;5093742;28;19923;-32
2022/01/02 12:11:16;;;;;;;;;;;;;;;;;;5094718;28;19999;-31
2022/01/02 12:13:42;;;;;;;;;;;;;;;;;;5094957;28;19943;-37
2022/01/02 12:16:08;;;;;;;;;;;;;;;;;;5094682;28;20369;-35
2022/01/02 12:18:39;;;;;;;;;;;;;;;;;;5094457;28;20343;-32
2022/01/02 12:21:05;;;;;;;;;;;;;;;;;;5094878;28;19914;-34
2022/01/02 12:23:40;;;;;;;;;;;;;;;;;;5094677;28;19919;-34
2022/01/02 12:26:06;;;;;;;;;;;;;;;;;;5094570;28;20420;-38
2022/01/02 12:28:32;;;;;;;;;;;;;;;;;;5094597;28;19926;-35
2022/01/02 12:30:58;;;;;;;;;;;;;;;;;;5094449;28;19930;-35
2022/01/02 12:33:24;;;;;;;;;;;;;;;;;;5094570;28;19946;-30
2022/01/02 12:35:50;;;;;;;;;;;;;;;;;;5093511;28;20346;-28
2022/01/02 12:38:16;;;;;;;;;;;;;;;;;;5094439;28;19977;-31
2022/01/02 12:40:43;;;;;;;;;;;;;;;;;;5094752;28;19923;-32
2022/01/02 12:43:09;;;;;;;;;;;;;;;;;;5094345;28;19919;-31
2022/01/02 12:45:35;;;;;;;;;;;;;;;;;;5094414;28;19908;-30
2022/01/02 12:48:01;;;;;;;;;;;;;;;;;;5095249;28;19919;-32
2022/01/02 12:50:27;;;;;;;;;;;;;;;;;;5098330;28;19912;-31
2022/01/02 12:52:53;;;;;;;;;;;;;;;;;;5097942;28;19993;-34
2022/01/02 12:55:19;;;;;;;;;;;;;;;;;;5098241;28;20322;-31
2022/01/02 12:57:45;;;;;;;;;;;;;;;;;;5097893;28;19944;-32
2022/01/02 13:00:11;;;;;;;;;;;;;;;;;;5097954;28;20432;-34
2022/01/02 13:02:37;;;;;;;;;;;;;;;;;;5097881;28;20236;-35
2022/01/02 13:05:03;;;;;;;;;;;;;;;;;;5098033;28;19918;-31
2022/01/02 13:07:30;;;;;;;;;;;;;;;;;;5097807;28;19962;-32
2022/01/02 13:09:56;;;;;;;;;;;;;;;;;;5097750;28;20346;-28
2022/01/02 13:12:22;;;;;;;;;;;;;;;;;;5097857;28;20011;-31
2022/01/02 13:14:48;;;;;;;;;;;;;;;;;;5097660;28;19927;-35
2022/01/02 13:17:14;;;;;;;;;;;;;;;;;;5097696;28;19928;-36
2022/01/02 13:19:40;;;;;;;;;;;;;;;;;;5097570;28;20355;-31
2022/01/02 13:22:07;;;;;;;;;;;;;;;;;;5097445;28;19908;-37
2022/01/02 13:24:33;;;;;;;;;;;;;;;;;;5097769;28;19912;-31
2022/01/02 13:26:59;;;;;;;;;;;;;;;;;;5096412;28;20327;-34
2022/01/02 13:29:25;;;;;;;;;;;;;;;;;;5097712;28;20307;-29
2022/01/02 13:31:51;;;;;;;;;;;;;;;;;;5097333;28;19938;-35
2022/01/02 13:34:17;;;;;;;;;;;;;;;;;;5097298;28;19912;-34
2022/01/02 13:36:43;;;;;;;;;;;;;;;;;;5097480;28;20384;-35
2022/01/02 13:39:09;;;;;;;;;;;;;;;;;;5097213;28;19918;-34
2022/01/02 13:41:37;;;;;;;;;;;;;;;;;;5097181;28;20258;-31
2022/01/02 13:44:03;;;;;;;;;;;;;;;;;;5096124;28;20350;-33
2022/01/02 13:46:29;;;;;;;;;;;;;;;;;;5097327;28;19912;-33
2022/01/02 13:48:55;;;;;;;;;;;;;;;;;;5097065;28;20235;-32
2022/01/02 13:51:25;;;;;;;;;;;;;;;;;;5097200;28;19980;-33
2022/01/02 13:53:51;;;;;;;;;;;;;;;;;;5095862;28;20339;-32
2022/01/02 13:56:18;;;;;;;;;;;;;;;;;;5096793;28;19929;-31
2022/01/02 13:58:45;;;;;;;;;;;;;;;;;;5096787;28;19923;-32
2022/01/02 14:01:11;;;;;;;;;;;;;;;;;;5096067;28;20259;-31
2022/01/02 14:03:37;;;;;;;;;;;;;;;;;;5096903;28;19908;-30
2022/01/02 14:06:03;;;;;;;;;;;;;;;;;;5096563;28;19940;-28
2022/01/02 14:08:29;;;;;;;;;;;;;;;;;;5096903;28;19908;-36
2022/01/02 14:10:55;;;;;;;;;;;;;;;;;;5096501;28;19942;-31
2022/01/02 14:13:22;;;;;;;;;;;;;;;;;;5095505;28;19908;-33
2022/01/02 14:15:48;;;;;;;;;;;;;;;;;;5096666;28;19923;-30
2022/01/02 14:18:14;;;;;;;;;;;;;;;;;;5096148;28;19920;-31
2022/01/02 14:20:40;;;;;;;;;;;;;;;;;;5096622;28;19995;-32
2022/01/02 14:23:06;;;;;;;;;;;;;;;;;;5096420;28;20003;-36
2022/01/02 14:25:33;;;;;;;;;;;;;;;;;;5096285;28;19912;-35
2022/01/02 14:27:59;;;;;;;;;;;;;;;;;;5095252;28;20047;-34
2022/01/02 14:30:25;;;;;;;;;;;;;;;;;;5096176;28;19924;-31
2022/01/02 14:32:52;;;;;;;;;;;;;;;;;;5096385;28;20011;-32
2022/01/02 14:35:18;;;;;;;;;;;;;;;;;;5095998;28;19912;-33
2022/01/02 14:37:45;;;;;;;;;;;;;;;;;;5096245;28;19912;-32
2022/01/02 14:40:11;;;;;;;;;;;;;;;;;;5096314;28;19908;-33
2022/01/02 14:42:39;;;;;;;;;;;;;;;;;;5094854;28;20418;-30
2022/01/02 14:45:05;;;;;;;;;;;;;;;;;;5095855;28;20331;-34
2022/01/02 14:47:33;;;;;;;;;;;;;;;;;;5096216;28;20293;-31
2022/01/02 14:50:03;;;;;;;;;;;;;;;;;;5096086;28;20005;-30
2022/01/02 14:52:29;;;;;;;;;;;;;;;;;;5095957;28;19984;-33
2022/01/02 14:54:55;;;;;;;;;;;;;;;;;;5095753;28;19912;-28
2022/01/02 14:57:21;;;;;;;;;;;;;;;;;;5096001;28;20030;-31
2022/01/02 14:59:49;;;;;;;;;;;;;;;;;;5095607;28;19927;-34
2022/01/02 15:02:15;;;;;;;;;;;;;;;;;;5095813;28;19954;-32
2022/01/02 15:04:41;;;;;;;;;;;;;;;;;;5094580;28;20267;-30
2022/01/02 15:07:07;;;;;;;;;;;;;;;;;;5095908;28;19984;-31
2022/01/02 15:09:33;;;;;;;;;;;;;;;;;;5095484;28;19955;-34
2022/01/02 15:11:59;;;;;;;;;;;;;;;;;;5094740;28;19912;-29
2022/01/02 15:14:25;;;;;;;;;;;;;;;;;;5095364;28;20381;-35
2022/01/02 15:16:52;;;;;;;;;;;;;;;;;;5096165;28;19908;-35
2022/01/02 15:19:19;;;;;;;;;;;;;;;;;;5094986;28;19966;-36
2022/01/02 15:21:45;;;;;;;;;;;;;;;;;;5095249;28;19923;-35
2022/01/02 15:24:11;;;;;;;;;;;;;;;;;;5095432;28;19923;-33
2022/01/02 15:26:37;;;;;;;;;;;;;;;;;;5095194;28;19923;-30
2022/01/02 15:29:03;;;;;;;;;;;;;;;;;;5095734;28;20322;-31
2022/01/02 15:31:29;;;;;;;;;;;;;;;;;;5095164;28;19988;-33
2022/01/02 15:33:56;;;;;;;;;;;;;;;;;;5095105;28;19934;-31
2022/01/02 15:36:23;;;;;;;;;;;;;;;;;;5095007;28;20351;-33
2022/01/02 15:38:49;;;;;;;;;;;;;;;;;;5094942;28;19919;-31
2022/01/02 15:41:15;;;;;;;;;;;;;;;;;;5095288;28;19912;-30
2022/01/02 15:43:44;;;;;;;;;;;;;;;;;;5094962;28;19999;-33
2022/01/02 15:46:09;;;;;;;;;;;;;;;;;;5093915;28;19923;-29
2022/01/02 15:48:35;;;;;;;;;;;;;;;;;;5094977;28;19908;-34
2022/01/02 15:51:02;;;;;;;;;;;;;;;;;;5094951;28;19931;-35
2022/01/02 15:53:29;;;;;;;;;;;;;;;;;;5094817;28;20351;-33
2022/01/02 15:55:55;;;;;;;;;;;;;;;;;;5093846;28;19920;-32
2022/01/02 15:58:21;;;;;;;;;;;;;;;;;;5095115;28;19969;-32
2022/01/02 16:00:48;;;;;;;;;;;;;;;;;;5095091;28;19916;-32
2022/01/02 16:03:14;;;;;;;;;;;;;;;;;;5095006;28;20258;-34
2022/01/02 16:05:40;;;;;;;;;;;;;;;;;;5093777;28;19947;-34
2022/01/02 16:08:06;;;;;;;;;;;;;;;;;;5094762;28;20373;-34
2022/01/02 16:10:32;;;;;;;;;;;;;;;;;;5094725;28;19963;-33
2022/01/02 16:12:58;;;;;;;;;;;;;;;;;;5093673;28;19908;-35
2022/01/02 16:15:24;;;;;;;;;;;;;;;;;;5094766;28;20363;-31
2022/01/02 16:17:50;;;;;;;;;;;;;;;;;;5093479;28;19947;-33
2022/01/02 16:20:19;;;;;;;;;;;;;;;;;;5094959;28;20015;-29
2022/01/02 16:22:45;;;;;;;;;;;;;;;;;;5095126;28;19919;-30
2022/01/02 16:25:10;;;;;;;;;;;;;;;;;;5098599;28;19923;-32
2022/01/02 16:27:36;;;;;;;;;;;;;;;;;;5098894;28;20243;-32
2022/01/02 16:30:02;;;;;;;;;;;;;;;;;;5098829;28;20262;-30
2022/01/02 16:32:28;;;;;;;;;;;;;;;;;;5097425;28;19915;-38
2022/01/02 16:34:54;;;;;;;;;;;;;;;;;;5098706;28;19931;-35
2022/01/02 16:37:21;;;;;;;;;;;;;;;;;;5098695;28;19908;-33
2022/01/02 16:39:47;;;;;;;;;;;;;;;;;;5098548;28;19916;-32
2022/01/02 16:42:13;;;;;;;;;;;;;;;;;;5098244;28;20327;-30
2022/01/02 16:44:39;;;;;;;;;;;;;;;;;;5098196;28;20347;-28